Missoula, MT

12:38 PM MST on March 05, 2015 (GMT -0700)
Rose Park | Change Station
CLOSE
Current Station
Personal Weather Station
Location: Missoula, MT
Elevation: 3210 ft
Nearby Weather Stations

Elev 3210 ft 46.86 °N, 114.01 °W | Updated 30 seconds ago

Clear
Clear
43.9 °F
Feels Like 44 °F
N
0.0
Wind Variable Wind from North
Gusts 0.0 mph

Today
High -- | Low -- °F
--% Chance of Precip.
Yesterday
High -- | Low -- °F
Precip. -- in
7:08 AM 6:27 PM
Full, 100% visible
Pressure 30.42 in
Visibility 10.0 miles
Clouds Clear
Windchill 44 °F
Dew Point 19 °F
Humidity 36%
Rainfall in
Snow Depth Not available.
UV 4 out of 12
Pollen .20 out of 12
Air Quality Not available.
Flu Activity Not available.
METAR KMSO 051853Z 00000KT 10SM CLR 03/M10 A3032 RMK AO2 SLP299 T00281100

More Conditions Fewer Conditions

Pressure 30.42 in
Visibility 10.0 miles
Clouds Clear
Windchill 44 °F
Dew Point 19 °F
Humidity 36%
Rainfall in
Snow Depth Not available.
UV 4 out of 12
Pollen .20 out of 12
Air Quality Not available.
Flu Activity Not available.
METAR KMSO 051853Z 00000KT 10SM CLR 03/M10 A3032 RMK AO2 SLP299 T00281100

More Conditions Fewer Conditions

10-Day Weather Forecast

Almanac

Astronomy

Mar. 05, 2015 Rise Set
Actual Time
Civil Twilight
Nautical Twilight
Astronomical Twilight
Moon
Length of Visible Light
Length of Day
Tomorrow will be .
, % of the Moon is Illuminated

Today's Extremes

State Highs State Lows

Community

WunderPhotos

Upload Photos

1,802,925 photos uploaded!

WunderBlogs® & News

Nearby

Air Quality

  Air Quality AQ Index Pollutant
Not available.

Snow Depth

Station Depth Elevation

Earthquake Activity

City Distance Mag. Time & Date
Minimum magnitude displayed is 2.5.

Coastal Water Temperatures

Place Temperature

Nearby Weather Stations